Accueil
METAR-TAF:

METAR-TAF

Aéroports :

Aéroport international Antonio-B.-Won-Pat de Guam

Hagåtña, Guam, États-Unis

latitude: 13-29N, longitude: 144-48E, altitude: 91 m

Observation

Le bulletin a été fait il y a 27 minutes, à 21:54 UTC
Vent 8 kt de est/nord-est
Température 29°C
Humidité 94%
Pression 1011 hPa
Visibilité: 16.1 km
Ciel clair

METAR: PGUM 142154Z 06008KT 10SM CLR 29/28 A2986 RMK AO2 SLP104 T02890278

Heure: 08:21 (22:21 UTC)

Prévision

Le bulletin a été fait il y a 4 heures et 46 minutes, à 17:35 UTC
Prévision valable du 14 à 18 UTC au 15 à 24 UTC
Vent 7 kt de nord/nord-est
Visibilité: 10 km
Quelques nuages à une hauteur de 1700 ft
Nuages épars à une hauteur de 3000 ft
averses à proximité
A partir de 14 à 2300 UTC
Vent 15 kt de nord-est
Visibilité: 10 km
Nuages épars à une hauteur de 2000 ft
averses à proximité

TAF: PGUM 141735Z 1418/1524 03007KT P6SM VCSH FEW017 SCT030 FM142300 05015KT P6SM VCSH SCT020

Observations et prévisions météorologiques de plus de 4000 aéroports (messages METAR et TAF).

Les stations disponibles sont représentées par des disques jaunes et rouges sur la carte.

Passer la souris dessus pour voir le nom de la station.

Cliquer dessus pour voir les observations et prévisions météorologiques.

Pour changer de carte: cliquez sur les boutons verts avec une croix noire pour zoomer, sur le bouton vert avec un tiret pour effectuer un zoom arrière, ou sur les flèches vertes pour les cartes adjacentes.


METAR-TAF: